createdAt,value
2022-12-14T00:01:39.262Z,51.38
2022-12-14T00:04:05.886Z,51.35
2022-12-14T00:06:32.585Z,51.62
2022-12-14T00:08:59.240Z,51.24
2022-12-14T00:11:25.911Z,51.69
2022-12-14T00:13:52.549Z,51.66
2022-12-14T00:16:19.343Z,51.31
2022-12-14T00:18:46.010Z,51.54
2022-12-14T00:21:12.693Z,51.51
2022-12-14T00:23:39.481Z,50.92
2022-12-14T00:26:06.104Z,51.75
2022-12-14T00:28:32.774Z,51.81
2022-12-14T00:30:59.412Z,51.61
2022-12-14T00:33:26.061Z,52.71
2022-12-14T00:35:52.705Z,52.46
2022-12-14T00:38:19.387Z,52.10
2022-12-14T00:40:46.010Z,52.01
2022-12-14T00:43:12.656Z,51.33
2022-12-14T00:45:39.250Z,51.80
2022-12-14T00:48:05.912Z,51.75
2022-12-14T00:50:32.520Z,51.48
2022-12-14T00:52:59.187Z,51.42
2022-12-14T00:55:25.852Z,51.39
2022-12-14T00:57:52.519Z,52.51
2022-12-14T01:00:19.209Z,52.35
2022-12-14T01:02:45.915Z,51.93
2022-12-14T01:05:12.621Z,51.11
2022-12-14T01:07:39.253Z,51.07
2022-12-14T01:10:05.909Z,51.72
2022-12-14T01:12:32.500Z,51.33
2022-12-14T01:14:59.171Z,50.99
2022-12-14T01:17:25.823Z,51.00
2022-12-14T01:19:52.475Z,50.59
2022-12-14T01:22:19.117Z,50.37
2022-12-14T01:24:45.756Z,50.46
2022-12-14T01:27:12.430Z,50.71
2022-12-14T01:29:39.071Z,50.72
2022-12-14T01:32:05.715Z,50.79
2022-12-14T01:34:32.376Z,50.54
2022-12-14T01:36:59.091Z,50.42
2022-12-14T01:39:25.814Z,50.13
2022-12-14T01:41:52.458Z,50.05
2022-12-14T01:44:19.117Z,50.11
2022-12-14T01:46:45.829Z,50.65
2022-12-14T01:49:12.481Z,51.53
2022-12-14T01:51:39.677Z,51.07
2022-12-14T01:54:06.359Z,51.79
2022-12-14T01:56:32.997Z,51.33
2022-12-14T01:58:59.686Z,51.26
2022-12-14T02:01:26.431Z,50.65
2022-12-14T02:03:53.163Z,50.78
2022-12-14T02:06:19.785Z,50.58
2022-12-14T02:08:46.381Z,51.20
2022-12-14T02:11:14.252Z,50.83
2022-12-14T02:13:40.932Z,51.07
2022-12-14T02:16:07.600Z,51.32
2022-12-14T02:18:34.290Z,51.11
2022-12-14T02:21:00.977Z,51.27
2022-12-14T02:23:27.951Z,51.20
2022-12-14T02:25:54.862Z,51.44
2022-12-14T02:28:21.517Z,51.19
2022-12-14T02:30:48.111Z,51.06
2022-12-14T02:33:14.740Z,50.85
2022-12-14T02:35:41.384Z,50.76
2022-12-14T02:38:08.022Z,51.18
2022-12-14T02:40:34.627Z,51.02
2022-12-14T02:43:01.303Z,51.40
2022-12-14T02:45:27.935Z,51.39
2022-12-14T02:47:54.671Z,51.49
2022-12-14T02:50:21.328Z,51.59
2022-12-14T02:52:47.962Z,50.98
2022-12-14T02:55:14.634Z,51.32
2022-12-14T02:57:41.297Z,51.33
2022-12-14T03:00:07.978Z,51.72
2022-12-14T03:02:34.754Z,51.81
2022-12-14T03:05:01.458Z,51.30
2022-12-14T03:07:28.279Z,51.11
2022-12-14T03:09:54.985Z,51.10
2022-12-14T03:12:21.610Z,50.65
2022-12-14T03:14:48.195Z,50.76
2022-12-14T03:17:19.207Z,51.46
2022-12-14T03:19:46.385Z,50.76
2022-12-14T03:22:15.708Z,50.64
2022-12-14T03:24:42.295Z,50.49
2022-12-14T03:27:08.914Z,50.46
2022-12-14T03:29:35.546Z,50.85
2022-12-14T03:32:02.185Z,50.84
2022-12-14T03:34:28.855Z,50.93
2022-12-14T03:36:55.521Z,50.56
2022-12-14T03:39:22.198Z,50.33
2022-12-14T03:41:49.206Z,51.07
2022-12-14T03:44:16.105Z,50.41
2022-12-14T03:46:42.713Z,50.68
2022-12-14T03:49:09.355Z,50.44
2022-12-14T03:51:36.028Z,50.99
2022-12-14T03:54:02.691Z,50.82
2022-12-14T03:56:29.370Z,50.65
2022-12-14T03:58:57.443Z,50.68
2022-12-14T04:01:24.315Z,50.68
2022-12-14T04:03:51.084Z,51.22
2022-12-14T04:06:17.758Z,51.54
2022-12-14T04:08:44.360Z,52.13
2022-12-14T04:11:10.976Z,51.80
2022-12-14T04:13:37.627Z,51.84
2022-12-14T04:16:04.273Z,51.57
2022-12-14T04:18:30.935Z,51.05
2022-12-14T04:20:57.561Z,51.62
2022-12-14T04:26:08.675Z,51.48
2022-12-14T04:28:35.351Z,51.64
2022-12-14T04:31:01.996Z,51.04
2022-12-14T04:33:28.948Z,51.09
2022-12-14T04:35:55.930Z,51.05
2022-12-14T04:38:22.551Z,51.29
2022-12-14T04:40:49.228Z,50.99
2022-12-14T04:43:15.905Z,51.04
2022-12-14T04:45:42.631Z,51.55
2022-12-14T04:48:09.311Z,51.10
2022-12-14T04:50:35.942Z,51.16
2022-12-14T04:53:02.587Z,50.78
2022-12-14T04:55:29.225Z,51.02
2022-12-14T04:57:56.138Z,51.07
2022-12-14T05:00:22.823Z,51.26
2022-12-14T05:02:49.506Z,51.17
2022-12-14T05:05:16.160Z,51.43
2022-12-14T05:07:42.809Z,51.31
2022-12-14T05:10:09.514Z,51.47
2022-12-14T05:12:36.188Z,51.36
2022-12-14T05:15:02.807Z,51.45
2022-12-14T05:17:29.490Z,51.81
2022-12-14T05:19:56.102Z,51.44
2022-12-14T05:22:22.804Z,51.42
2022-12-14T05:24:49.422Z,50.95
2022-12-14T05:27:16.040Z,51.38
2022-12-14T05:29:42.710Z,51.34
2022-12-14T05:32:09.406Z,51.35
2022-12-14T05:34:36.002Z,51.32
2022-12-14T05:37:02.643Z,51.58
2022-12-14T05:39:29.343Z,51.27
2022-12-14T05:41:55.982Z,51.96
2022-12-14T05:44:22.639Z,51.86
2022-12-14T05:46:49.294Z,52.81
2022-12-14T05:49:15.934Z,52.88
2022-12-14T05:51:42.624Z,52.04
2022-12-14T05:54:09.297Z,52.19
2022-12-14T05:56:35.987Z,51.69
2022-12-14T05:59:02.650Z,51.64
2022-12-14T06:01:29.335Z,51.22
2022-12-14T06:03:56.097Z,51.61
2022-12-14T06:06:22.703Z,51.51
2022-12-14T06:08:49.292Z,51.90
2022-12-14T06:11:15.915Z,52.50
2022-12-14T06:13:42.562Z,51.94
2022-12-14T06:16:09.303Z,52.57
2022-12-14T06:18:35.957Z,52.03
2022-12-14T06:21:02.672Z,52.40
2022-12-14T06:23:29.556Z,52.76
2022-12-14T06:25:56.432Z,52.24
2022-12-14T06:28:23.052Z,52.03
2022-12-14T06:30:49.751Z,52.30
2022-12-14T06:33:16.432Z,51.76
2022-12-14T06:35:43.094Z,52.54
2022-12-14T06:38:09.769Z,52.97
2022-12-14T06:40:36.371Z,52.43
2022-12-14T06:43:03.005Z,51.74
2022-12-14T06:45:29.673Z,51.79
2022-12-14T06:47:56.410Z,51.46
2022-12-14T06:50:23.061Z,52.38
2022-12-14T06:52:49.703Z,52.15
2022-12-14T06:55:16.397Z,52.87
2022-12-14T06:57:43.112Z,52.81
2022-12-14T07:00:09.815Z,53.03
2022-12-14T07:02:36.630Z,52.73
2022-12-14T07:05:03.420Z,52.53
2022-12-14T07:07:30.049Z,52.53
2022-12-14T07:09:56.757Z,52.39
2022-12-14T07:12:23.359Z,52.30
2022-12-14T07:14:49.999Z,51.94
2022-12-14T07:17:16.647Z,51.60
2022-12-14T07:19:43.336Z,51.78
2022-12-14T07:22:09.983Z,51.67
2022-12-14T07:24:36.617Z,51.50
2022-12-14T07:27:03.271Z,51.34
2022-12-14T07:29:34.492Z,50.84
2022-12-14T07:32:01.415Z,51.47
2022-12-14T07:34:28.078Z,51.66
2022-12-14T07:36:54.691Z,51.33
2022-12-14T07:39:21.379Z,51.27
2022-12-14T07:41:48.007Z,50.80
2022-12-14T07:44:14.732Z,50.77
2022-12-14T07:46:41.468Z,51.19
2022-12-14T07:49:08.278Z,50.97
2022-12-14T07:51:34.919Z,50.85
2022-12-14T07:54:01.569Z,50.49
2022-12-14T07:56:28.186Z,50.48
2022-12-14T07:58:54.822Z,51.44
2022-12-14T08:01:22.653Z,51.91
2022-12-14T08:03:49.335Z,51.88
2022-12-14T08:06:15.965Z,51.86
2022-12-14T08:08:42.644Z,51.75
2022-12-14T08:11:09.397Z,51.59
2022-12-14T08:13:36.002Z,51.69
2022-12-14T08:16:02.697Z,51.33
2022-12-14T08:18:29.415Z,51.64
2022-12-14T08:20:56.018Z,51.99
2022-12-14T08:23:22.653Z,52.55
2022-12-14T08:25:49.328Z,52.49
2022-12-14T08:28:15.980Z,52.16
2022-12-14T08:30:42.652Z,51.96
2022-12-14T08:33:09.323Z,51.34
2022-12-14T08:35:36.093Z,51.33
2022-12-14T08:38:02.715Z,51.21
2022-12-14T08:40:29.347Z,51.15
2022-12-14T08:42:55.980Z,50.43
2022-12-14T08:45:22.593Z,50.43
2022-12-14T08:47:49.255Z,50.86
2022-12-14T08:50:15.907Z,50.46
2022-12-14T08:52:42.575Z,50.53
2022-12-14T08:55:09.236Z,50.78
2022-12-14T08:57:35.839Z,50.75
2022-12-14T09:00:03.018Z,52.32
2022-12-14T09:02:30.024Z,52.89
2022-12-14T09:04:56.789Z,52.63
2022-12-14T09:07:23.430Z,51.36
2022-12-14T09:09:50.172Z,50.84
2022-12-14T09:12:16.811Z,50.64
2022-12-14T09:14:43.426Z,49.82
2022-12-14T09:17:10.083Z,50.29
2022-12-14T09:19:36.725Z,49.64
2022-12-14T09:22:03.443Z,50.01
2022-12-14T09:24:30.113Z,50.79
2022-12-14T09:26:56.742Z,50.46
2022-12-14T09:29:23.380Z,49.30
2022-12-14T09:31:50.044Z,48.72
2022-12-14T09:34:16.750Z,48.90
2022-12-14T09:36:43.610Z,49.44
2022-12-14T09:39:10.290Z,48.60
2022-12-14T09:41:36.929Z,49.39
2022-12-14T09:44:03.665Z,50.59
2022-12-14T09:46:30.339Z,50.77
2022-12-14T09:48:56.950Z,49.52
2022-12-14T09:51:23.607Z,48.65
2022-12-14T09:53:50.330Z,47.71
2022-12-14T09:56:16.977Z,47.81
2022-12-14T09:58:43.652Z,47.94
2022-12-14T10:01:10.446Z,47.58
2022-12-14T10:03:37.673Z,48.17
2022-12-14T10:06:04.576Z,48.97
2022-12-14T10:08:31.780Z,48.85
2022-12-14T10:10:58.846Z,48.62
2022-12-14T10:13:25.466Z,48.12
2022-12-14T10:15:52.147Z,49.86
2022-12-14T10:18:41.369Z,50.06
2022-12-14T10:21:05.481Z,48.18
2022-12-14T10:23:32.179Z,47.92
2022-12-14T10:25:58.825Z,47.47
2022-12-14T10:28:25.446Z,47.26
2022-12-14T10:33:36.481Z,47.79
2022-12-14T10:36:03.169Z,48.81
2022-12-14T10:38:30.245Z,48.08
2022-12-14T10:40:57.132Z,50.43
2022-12-14T10:43:23.762Z,50.77
2022-12-14T10:45:50.533Z,50.13
2022-12-14T10:48:17.268Z,49.24
2022-12-14T10:50:43.915Z,48.01
2022-12-14T10:53:16.556Z,49.43
2022-12-14T10:55:43.213Z,49.45
2022-12-14T10:58:09.902Z,48.34
2022-12-14T11:00:36.585Z,48.64
2022-12-14T11:03:03.328Z,48.18
2022-12-14T11:05:36.171Z,46.48
2022-12-14T11:08:03.479Z,46.50
2022-12-14T11:10:30.229Z,46.46
2022-12-14T11:12:56.864Z,44.38
2022-12-14T11:15:23.452Z,43.92
2022-12-14T11:17:50.195Z,45.87
2022-12-14T11:20:16.914Z,46.90
2022-12-14T11:22:43.590Z,47.37
2022-12-14T11:25:10.187Z,46.41
2022-12-14T11:27:36.872Z,46.63
2022-12-14T11:30:03.473Z,45.97
2022-12-14T11:32:30.134Z,46.20
2022-12-14T11:34:56.737Z,44.62
2022-12-14T11:37:23.346Z,44.79
2022-12-14T11:39:50.054Z,46.71
2022-12-14T11:42:16.696Z,48.25
2022-12-14T11:44:43.310Z,47.93
2022-12-14T11:47:09.901Z,47.21
2022-12-14T11:49:36.555Z,46.18
2022-12-14T11:52:03.226Z,45.99
2022-12-14T11:54:29.814Z,44.78
2022-12-14T11:56:56.485Z,46.12
2022-12-14T11:59:23.119Z,46.21
2022-12-14T12:01:49.826Z,47.67
2022-12-14T12:04:16.584Z,46.21
2022-12-14T12:06:43.259Z,44.85
2022-12-14T12:09:10.881Z,45.30
2022-12-14T12:11:37.487Z,44.04
2022-12-14T12:14:04.147Z,43.37
2022-12-14T12:16:30.840Z,43.21
2022-12-14T12:18:57.499Z,43.49
2022-12-14T12:21:24.121Z,43.48
2022-12-14T12:23:50.783Z,44.22
2022-12-14T12:26:17.471Z,45.77
2022-12-14T12:28:44.137Z,45.80
2022-12-14T12:31:11.393Z,45.86
2022-12-14T12:33:38.156Z,44.62
2022-12-14T12:36:04.755Z,44.69
2022-12-14T12:38:31.676Z,44.23
2022-12-14T12:40:58.556Z,45.56
2022-12-14T12:43:25.206Z,44.48
2022-12-14T12:45:51.839Z,44.79
2022-12-14T12:48:18.438Z,45.27
2022-12-14T12:50:49.843Z,45.11
2022-12-14T12:53:16.737Z,44.43
2022-12-14T12:55:43.365Z,43.63
2022-12-14T12:58:10.267Z,43.78
2022-12-14T13:00:37.016Z,45.08
2022-12-14T13:03:03.759Z,46.60
2022-12-14T13:05:46.359Z,46.56
2022-12-14T13:08:13.608Z,46.49
2022-12-14T13:10:50.447Z,46.84
2022-12-14T13:13:26.852Z,46.76
2022-12-14T13:15:53.540Z,47.59
2022-12-14T13:18:48.866Z,47.70
2022-12-14T13:21:06.815Z,46.38
2022-12-14T13:23:44.865Z,48.38
2022-12-14T13:26:23.426Z,48.33
2022-12-14T13:28:58.829Z,48.19
2022-12-14T13:31:25.478Z,47.55
2022-12-14T13:33:52.111Z,47.85
2022-12-14T13:36:18.771Z,47.60
2022-12-14T13:38:45.403Z,48.09
2022-12-14T13:41:12.124Z,48.84
2022-12-14T13:43:38.772Z,48.05
2022-12-14T13:46:05.442Z,48.17
2022-12-14T13:48:32.382Z,48.89
2022-12-14T13:51:01.821Z,48.05
2022-12-14T13:53:29.099Z,47.40
2022-12-14T13:55:55.758Z,48.04
2022-12-14T13:58:22.455Z,47.58
2022-12-14T14:00:49.125Z,47.07
2022-12-14T14:03:15.843Z,47.47
2022-12-14T14:05:42.522Z,47.25
2022-12-14T14:08:09.179Z,48.19
2022-12-14T14:10:35.885Z,48.18
2022-12-14T14:13:02.503Z,47.61
2022-12-14T14:15:29.108Z,47.60
2022-12-14T14:17:56.675Z,47.21
2022-12-14T14:20:23.368Z,47.82
2022-12-14T14:22:50.027Z,48.68
2022-12-14T14:25:16.715Z,47.78
2022-12-14T14:27:43.392Z,48.15
2022-12-14T14:30:17.070Z,48.91
2022-12-14T14:32:43.739Z,49.12
2022-12-14T14:35:10.396Z,50.63
2022-12-14T14:37:37.033Z,51.24
2022-12-14T14:40:16.779Z,50.99
2022-12-14T14:42:48.700Z,50.49
2022-12-14T14:45:15.355Z,49.37
2022-12-14T14:47:42.041Z,49.88
2022-12-14T14:50:08.639Z,49.16
2022-12-14T14:52:35.297Z,49.51
2022-12-14T14:55:50.659Z,50.61
2022-12-14T14:57:48.556Z,50.69
2022-12-14T15:00:15.371Z,51.42
2022-12-14T15:02:42.160Z,51.31
2022-12-14T15:05:40.941Z,50.94
2022-12-14T15:07:55.553Z,51.19
2022-12-14T15:10:22.882Z,51.43
2022-12-14T15:12:49.721Z,51.35
2022-12-14T15:15:16.364Z,51.64
2022-12-14T15:17:43.048Z,52.44
2022-12-14T15:20:09.710Z,52.85
2022-12-14T15:22:36.401Z,52.35
2022-12-14T15:25:02.997Z,51.36
2022-12-14T15:27:29.791Z,51.03
2022-12-14T15:29:56.483Z,50.13
2022-12-14T15:32:23.092Z,50.72
2022-12-14T15:34:49.688Z,50.70
2022-12-14T15:37:16.332Z,50.86
2022-12-14T15:39:42.994Z,51.58
2022-12-14T15:42:09.692Z,51.56
2022-12-14T15:44:36.350Z,51.48
2022-12-14T15:47:02.999Z,50.74
2022-12-14T15:49:29.706Z,50.45
2022-12-14T15:51:56.351Z,50.72
2022-12-14T15:54:23.012Z,51.04
2022-12-14T15:56:49.664Z,51.37
2022-12-14T15:59:16.300Z,52.28
2022-12-14T16:01:46.073Z,51.48
2022-12-14T16:04:16.874Z,51.98
2022-12-14T16:06:43.575Z,53.05
2022-12-14T16:09:10.202Z,53.83
2022-12-14T16:11:36.822Z,53.66
2022-12-14T16:14:03.411Z,54.43
2022-12-14T16:16:30.187Z,54.33
2022-12-14T16:19:13.847Z,54.61
2022-12-14T16:21:43.563Z,54.47
2022-12-14T16:24:10.250Z,53.63
2022-12-14T16:26:36.932Z,53.11
2022-12-14T16:29:03.590Z,53.00
2022-12-14T16:31:30.250Z,52.69
2022-12-14T16:33:56.953Z,53.03
2022-12-14T16:36:23.639Z,53.13
2022-12-14T16:38:50.306Z,52.90
2022-12-14T16:41:16.960Z,52.66
2022-12-14T16:43:43.654Z,52.12
2022-12-14T16:46:10.389Z,52.20
2022-12-14T16:48:37.145Z,52.16
2022-12-14T16:51:14.363Z,52.39
2022-12-14T16:53:44.079Z,52.48
2022-12-14T16:56:10.898Z,52.38
2022-12-14T16:58:37.630Z,52.87
2022-12-14T17:01:04.326Z,52.90
2022-12-14T17:03:31.483Z,53.07
2022-12-14T17:05:58.585Z,52.75
2022-12-14T17:08:25.228Z,52.68
2022-12-14T17:10:51.837Z,53.01
2022-12-14T17:13:18.543Z,53.17
2022-12-14T17:15:45.211Z,53.23
2022-12-14T17:18:15.977Z,53.23
2022-12-14T17:20:42.646Z,53.07
2022-12-14T17:23:09.255Z,52.67
2022-12-14T17:25:35.928Z,53.28
2022-12-14T17:28:02.627Z,53.43
2022-12-14T17:30:29.396Z,54.32
2022-12-14T17:32:56.067Z,54.45
2022-12-14T17:35:22.660Z,54.45
2022-12-14T17:37:49.476Z,53.96
2022-12-14T17:40:16.154Z,54.25
2022-12-14T17:42:42.844Z,54.55
2022-12-14T17:45:09.502Z,54.05
2022-12-14T17:47:36.192Z,53.78
2022-12-14T17:50:02.877Z,53.88
2022-12-14T17:52:29.559Z,53.89
2022-12-14T17:54:56.168Z,53.59
2022-12-14T17:57:22.806Z,54.77
2022-12-14T17:59:49.478Z,54.50
2022-12-14T18:02:16.285Z,54.21
2022-12-14T18:04:43.052Z,54.47
2022-12-14T18:07:09.703Z,54.28
2022-12-14T18:09:36.358Z,54.17
2022-12-14T18:12:25.350Z,54.18
2022-12-14T18:14:49.683Z,53.71
2022-12-14T18:17:16.387Z,53.92
2022-12-14T18:19:43.051Z,53.77
2022-12-14T18:22:10.989Z,53.72
2022-12-14T18:24:37.589Z,54.03
2022-12-14T18:27:04.254Z,54.32
2022-12-14T18:29:31.015Z,54.52
2022-12-14T18:31:57.745Z,54.08
2022-12-14T18:34:24.493Z,54.50
2022-12-14T18:36:51.111Z,53.85
2022-12-14T18:39:17.752Z,53.98
2022-12-14T18:41:44.401Z,53.74
2022-12-14T18:44:11.032Z,54.68
2022-12-14T18:46:37.757Z,54.54
2022-12-14T18:49:04.548Z,54.59
2022-12-14T18:51:31.200Z,54.53
2022-12-14T18:53:57.882Z,54.16
2022-12-14T18:56:24.578Z,54.34
2022-12-14T18:58:51.278Z,53.82
2022-12-14T19:01:18.052Z,54.12
2022-12-14T19:03:45.144Z,54.46
2022-12-14T19:06:42.857Z,54.32
2022-12-14T19:08:58.584Z,54.60
2022-12-14T19:11:25.204Z,54.25
2022-12-14T19:13:51.799Z,54.54
2022-12-14T19:16:18.467Z,55.41
2022-12-14T19:18:45.169Z,55.31
2022-12-14T19:21:11.851Z,55.03
2022-12-14T19:23:38.546Z,55.21
2022-12-14T19:26:05.241Z,54.64
2022-12-14T19:28:33.365Z,55.04
2022-12-14T19:31:00.424Z,54.77
2022-12-14T19:33:27.535Z,54.78
2022-12-14T19:35:54.413Z,54.31
2022-12-14T19:38:21.162Z,54.07
2022-12-14T19:40:48.906Z,54.30
2022-12-14T19:43:15.666Z,53.98
2022-12-14T19:45:42.328Z,54.13
2022-12-14T19:48:13.105Z,54.25
2022-12-14T19:50:40.033Z,54.37
2022-12-14T19:53:10.801Z,54.28
2022-12-14T19:55:37.513Z,53.92
2022-12-14T19:58:05.255Z,54.65
2022-12-14T20:00:34.767Z,54.96
2022-12-14T20:03:01.700Z,54.44
2022-12-14T20:05:28.529Z,54.69
2022-12-14T20:07:57.929Z,54.78
2022-12-14T20:10:24.643Z,55.40
2022-12-14T20:12:51.374Z,55.02
2022-12-14T20:15:18.071Z,54.78
2022-12-14T20:17:44.799Z,54.80
2022-12-14T20:20:11.438Z,54.82
2022-12-14T20:22:38.153Z,54.22
2022-12-14T20:25:05.905Z,54.89
2022-12-14T20:27:37.447Z,54.94
2022-12-14T20:30:07.089Z,55.06
2022-12-14T20:32:33.750Z,54.89
2022-12-14T20:35:00.426Z,54.98
2022-12-14T20:37:27.051Z,54.99
2022-12-14T20:39:53.663Z,56.04
2022-12-14T20:42:20.294Z,56.12
2022-12-14T20:44:49.249Z,55.64
2022-12-14T20:47:16.319Z,55.38
2022-12-14T20:49:43.185Z,55.23
2022-12-14T20:52:09.860Z,55.30
2022-12-14T20:54:36.688Z,55.43
2022-12-14T20:57:03.330Z,55.66
2022-12-14T20:59:29.992Z,55.93
2022-12-14T21:01:57.091Z,55.75
2022-12-14T21:04:23.971Z,56.04
2022-12-14T21:06:50.585Z,55.61
2022-12-14T21:09:17.261Z,55.67
2022-12-14T21:11:43.910Z,55.83
2022-12-14T21:14:10.592Z,55.85
2022-12-14T21:16:37.432Z,55.51
2022-12-14T21:19:04.172Z,55.83
2022-12-14T21:21:30.824Z,55.79
2022-12-14T21:23:57.602Z,55.76
2022-12-14T21:26:24.291Z,56.05
2022-12-14T21:28:50.923Z,57.36
2022-12-14T21:31:17.630Z,57.14
2022-12-14T21:33:49.571Z,56.78
2022-12-14T21:36:16.600Z,56.71
2022-12-14T21:38:43.277Z,57.19
2022-12-14T21:41:09.969Z,56.57
2022-12-14T21:43:36.623Z,56.63
2022-12-14T21:46:03.368Z,56.71
2022-12-14T21:48:30.023Z,56.58
2022-12-14T21:50:56.745Z,56.47
2022-12-14T21:53:23.428Z,56.94
2022-12-14T21:55:50.030Z,56.60
2022-12-14T21:58:16.652Z,56.30
2022-12-14T22:00:43.267Z,56.52
2022-12-14T22:03:09.992Z,56.57
2022-12-14T22:05:36.724Z,56.37
2022-12-14T22:08:03.404Z,56.26
2022-12-14T22:10:30.012Z,56.08
2022-12-14T22:12:56.647Z,56.63
2022-12-14T22:15:23.292Z,57.42
2022-12-14T22:17:49.922Z,57.70
2022-12-14T22:20:16.603Z,57.45
2022-12-14T22:22:43.237Z,57.76
2022-12-14T22:25:09.913Z,58.06
2022-12-14T22:27:36.574Z,58.34
2022-12-14T22:30:03.201Z,57.46
2022-12-14T22:32:29.884Z,56.88
2022-12-14T22:34:56.492Z,57.25
2022-12-14T22:37:23.175Z,57.04
2022-12-14T22:39:49.862Z,57.34
2022-12-14T22:42:16.573Z,56.90
2022-12-14T22:44:43.228Z,57.07
2022-12-14T22:47:09.846Z,57.50
2022-12-14T22:49:36.502Z,57.88
2022-12-14T22:52:03.126Z,57.28
2022-12-14T22:54:29.744Z,57.93
2022-12-14T22:56:56.404Z,59.33
2022-12-14T22:59:23.030Z,58.37
2022-12-14T23:01:50.569Z,57.84
2022-12-14T23:04:17.623Z,57.49
2022-12-14T23:06:44.813Z,58.78
2022-12-14T23:09:11.444Z,59.86
2022-12-14T23:11:38.125Z,58.96
2022-12-14T23:14:04.775Z,58.56
2022-12-14T23:16:31.428Z,58.11
2022-12-14T23:18:58.084Z,58.34
2022-12-14T23:21:24.729Z,57.56
2022-12-14T23:23:51.328Z,57.40
2022-12-14T23:26:18.002Z,57.38
2022-12-14T23:28:44.697Z,58.50
2022-12-14T23:31:16.704Z,59.00
2022-12-14T23:33:43.379Z,57.96
2022-12-14T23:36:10.049Z,58.25
2022-12-14T23:38:36.687Z,59.28
2022-12-14T23:41:03.394Z,59.37
2022-12-14T23:43:30.514Z,58.98
2022-12-14T23:45:57.570Z,58.39
2022-12-14T23:48:24.271Z,58.14
2022-12-14T23:50:50.932Z,58.07
2022-12-14T23:53:18.132Z,58.03
2022-12-14T23:55:44.849Z,57.37
2022-12-14T23:58:11.534Z,57.94
